Terminal Aerodrome Forecast
Issued by NWS Sterling, VA

Home | Current Version | Previous Version | Text Only | Print | Product List | Glossary On
Versions: 1 2 3 4 5 6 7 8 9 10 11 12 13 14 15 16 17 18 19 20 21 22
000
FTUS41 KLWX 260847 AAA
TAFIAD
TAF AMD
KIAD 260847Z 2609/2712 35006KT P6SM OVC050
     FM262000 34008KT P6SM SCT090
     FM270000 VRB03KT P6SM SCT090
     FM270500 00000KT P6SM BKN100
     FM271000 33007KT P6SM BKN090=

USA.gov is the U.S. government's official web portal to all federal, state and local government web resources and services.